createdAt,value
2022-10-08T00:01:54.365Z,12.68
2022-10-08T00:06:01.386Z,12.69
2022-10-08T00:10:06.314Z,12.48
2022-10-08T00:14:09.520Z,12.24
2022-10-08T00:18:11.489Z,12.21
2022-10-08T00:22:14.009Z,12.23
2022-10-08T00:26:18.475Z,12.03
2022-10-08T00:30:20.557Z,12.16
2022-10-08T00:34:23.792Z,12.16
2022-10-08T00:38:26.031Z,12.15
2022-10-08T00:42:28.082Z,12.24
2022-10-08T00:46:49.394Z,12.18
2022-10-08T00:50:51.845Z,12.25
2022-10-08T00:54:54.028Z,12.29
2022-10-08T00:58:56.023Z,12.23
2022-10-08T01:02:58.077Z,12.28
2022-10-08T01:07:29.625Z,12.35
2022-10-08T01:11:44.631Z,12.30
2022-10-08T01:16:02.429Z,12.24
2022-10-08T01:20:14.326Z,12.16
2022-10-08T01:24:44.496Z,12.06
2022-10-08T01:29:02.805Z,12.11
2022-10-08T01:33:16.033Z,12.21
2022-10-08T01:37:32.960Z,12.18
2022-10-08T01:41:35.829Z,12.08
2022-10-08T01:45:42.723Z,11.99
2022-10-08T01:49:50.656Z,12.07
2022-10-08T01:53:53.265Z,12.08
2022-10-08T01:58:01.333Z,12.11
2022-10-08T02:02:14.346Z,12.12
2022-10-08T02:06:16.949Z,12.05
2022-10-08T02:10:23.178Z,12.03
2022-10-08T02:14:31.871Z,11.92
2022-10-08T02:18:51.954Z,11.97
2022-10-08T02:22:59.075Z,11.95
2022-10-08T02:27:04.606Z,12.04
2022-10-08T02:31:14.243Z,12.10
2022-10-08T02:35:32.192Z,12.14
2022-10-08T02:39:39.169Z,12.09
2022-10-08T02:43:49.712Z,12.00
2022-10-08T02:47:56.509Z,12.04
2022-10-08T02:52:04.232Z,11.99
2022-10-08T02:56:38.916Z,12.05
2022-10-08T03:00:54.771Z,12.07
2022-10-08T03:05:03.291Z,12.01
2022-10-08T03:09:06.918Z,12.01
2022-10-08T03:13:10.747Z,12.08
2022-10-08T03:17:16.080Z,12.14
2022-10-08T03:21:19.380Z,12.12
2022-10-08T03:25:21.413Z,12.11
2022-10-08T03:29:23.529Z,12.11
2022-10-08T03:33:25.501Z,12.11
2022-10-08T03:37:27.535Z,12.01
2022-10-08T03:41:31.417Z,12.11
2022-10-08T03:45:33.635Z,12.12
2022-10-08T03:49:35.668Z,12.18
2022-10-08T03:53:39.258Z,12.17
2022-10-08T03:57:41.404Z,12.17
2022-10-08T04:01:43.657Z,12.20
2022-10-08T04:05:49.351Z,12.16
2022-10-08T04:09:51.339Z,12.14
2022-10-08T04:13:53.443Z,12.12
2022-10-08T04:17:55.415Z,12.04
2022-10-08T04:21:58.055Z,12.03
2022-10-08T04:26:00.076Z,12.09
2022-10-08T04:30:02.107Z,11.96
2022-10-08T04:34:04.134Z,11.93
2022-10-08T04:38:06.160Z,11.93
2022-10-08T04:42:08.332Z,11.90
2022-10-08T04:46:13.385Z,11.87
2022-10-08T04:50:15.513Z,11.76
2022-10-08T04:54:22.749Z,11.79
2022-10-08T04:58:25.972Z,11.82
2022-10-08T05:02:28.056Z,11.83
2022-10-08T05:06:31.627Z,11.85
2022-10-08T05:10:34.004Z,11.84
2022-10-08T05:19:40.527Z,11.80
2022-10-08T05:23:43.437Z,11.79
2022-10-08T05:27:45.482Z,11.78
2022-10-08T05:31:47.627Z,11.82
2022-10-08T05:35:49.795Z,11.91
2022-10-08T05:39:51.879Z,11.95
2022-10-08T05:43:55.125Z,11.93
2022-10-08T05:47:57.538Z,11.98
2022-10-08T05:51:59.661Z,12.11
2022-10-08T05:56:11.240Z,12.23
2022-10-08T06:00:16.797Z,12.35
2022-10-08T06:04:21.973Z,12.42
2022-10-08T06:08:24.202Z,12.47
2022-10-08T06:12:26.721Z,12.49
2022-10-08T06:16:30.469Z,12.47
2022-10-08T06:20:32.729Z,12.41
2022-10-08T06:24:34.673Z,12.52
2022-10-08T06:28:38.937Z,12.66
2022-10-08T06:32:42.231Z,12.80
2022-10-08T06:36:44.269Z,12.96
2022-10-08T06:40:46.297Z,13.12
2022-10-08T06:44:48.379Z,13.19
2022-10-08T06:48:50.546Z,13.37
2022-10-08T06:52:52.635Z,13.66
2022-10-08T06:56:55.791Z,13.77
2022-10-08T07:01:08.895Z,13.85
2022-10-08T07:05:10.921Z,13.89
2022-10-08T07:09:13.550Z,13.97
2022-10-08T07:13:15.564Z,14.15
2022-10-08T07:17:17.611Z,14.21
2022-10-08T07:21:20.992Z,14.38
2022-10-08T07:25:23.023Z,14.40
2022-10-08T07:29:26.347Z,14.47
2022-10-08T07:33:31.242Z,14.66
2022-10-08T07:37:34.072Z,14.79
2022-10-08T07:41:36.618Z,14.98
2022-10-08T07:45:49.417Z,15.35
2022-10-08T07:49:52.535Z,15.49
2022-10-08T07:53:58.806Z,15.63
2022-10-08T07:58:04.705Z,15.87
2022-10-08T08:02:06.862Z,16.09
2022-10-08T08:06:16.567Z,16.38
2022-10-08T08:10:18.547Z,16.57
2022-10-08T08:14:21.598Z,16.75
2022-10-08T08:18:24.028Z,17.03
2022-10-08T08:22:26.091Z,17.26
2022-10-08T08:26:32.943Z,17.38
2022-10-08T08:30:35.209Z,17.43
2022-10-08T08:34:39.096Z,17.53
2022-10-08T08:38:41.211Z,17.70
2022-10-08T08:42:57.210Z,17.95
2022-10-08T08:47:15.925Z,18.07
2022-10-08T08:51:17.922Z,18.35
2022-10-08T08:55:30.072Z,18.57
2022-10-08T08:59:35.866Z,18.85
2022-10-08T09:03:54.524Z,19.02
2022-10-08T09:08:02.582Z,19.42
2022-10-08T09:12:36.470Z,19.79
2022-10-08T09:16:39.904Z,20.17
2022-10-08T09:20:42.588Z,20.28
2022-10-08T09:24:46.678Z,20.40
2022-10-08T09:28:59.350Z,20.60
2022-10-08T09:33:06.681Z,20.73
2022-10-08T09:37:19.292Z,20.88
2022-10-08T09:41:21.307Z,21.02
2022-10-08T09:45:38.501Z,20.84
2022-10-08T09:49:41.283Z,20.69
2022-10-08T09:53:48.389Z,20.62
2022-10-08T09:57:55.684Z,20.93
2022-10-08T10:01:58.963Z,20.94
2022-10-08T10:06:01.679Z,20.84
2022-10-08T10:10:06.430Z,21.07
2022-10-08T10:14:24.086Z,21.10
2022-10-08T10:18:32.674Z,20.97
2022-10-08T10:23:15.178Z,21.06
2022-10-08T10:27:47.080Z,21.33
2022-10-08T10:32:04.872Z,21.54
2022-10-08T10:36:13.618Z,21.38
2022-10-08T10:40:31.901Z,21.19
2022-10-08T10:44:57.726Z,21.11
2022-10-08T10:49:00.134Z,21.32
2022-10-08T10:53:16.050Z,21.56
2022-10-08T10:57:30.025Z,21.66
2022-10-08T11:01:51.092Z,21.75
2022-10-08T11:06:13.001Z,21.73
2022-10-08T11:10:17.924Z,21.54
2022-10-08T11:14:44.889Z,21.70
2022-10-08T11:18:58.734Z,21.79
2022-10-08T11:23:06.040Z,21.84
2022-10-08T11:28:03.886Z,21.99
2022-10-08T11:32:12.634Z,22.23
2022-10-08T11:36:37.610Z,22.49
2022-10-08T11:41:12.019Z,22.55
2022-10-08T11:45:15.217Z,22.71
2022-10-08T11:49:17.115Z,22.82
2022-10-08T11:53:21.791Z,22.94
2022-10-08T12:01:59.045Z,22.97
2022-10-08T12:06:13.420Z,22.82
2022-10-08T12:10:18.405Z,22.88
2022-10-08T12:14:20.431Z,23.01
2022-10-08T12:18:26.237Z,22.87
2022-10-08T12:22:28.509Z,22.92
2022-10-08T12:26:30.466Z,22.95
2022-10-08T12:30:52.987Z,22.95
2022-10-08T12:34:55.881Z,23.03
2022-10-08T12:39:26.638Z,23.01
2022-10-08T12:43:32.053Z,22.49
2022-10-08T12:48:08.778Z,22.51
2022-10-08T12:52:18.494Z,22.79
2022-10-08T12:56:29.323Z,23.21
2022-10-08T13:00:34.570Z,23.37
2022-10-08T13:04:37.087Z,23.83
2022-10-08T13:08:40.268Z,24.16
2022-10-08T13:12:43.670Z,24.27
2022-10-08T13:16:46.573Z,24.50
2022-10-08T13:21:05.304Z,24.57
2022-10-08T13:25:34.134Z,24.70
2022-10-08T13:29:37.471Z,24.66
2022-10-08T13:33:39.522Z,24.59
2022-10-08T13:37:41.716Z,24.48
2022-10-08T13:41:52.355Z,24.22
2022-10-08T13:45:54.611Z,24.10
2022-10-08T13:50:01.795Z,23.87
2022-10-08T13:54:04.063Z,23.61
2022-10-08T13:58:06.794Z,23.36
2022-10-08T14:02:13.491Z,23.12
2022-10-08T14:06:15.625Z,23.02
2022-10-08T14:10:19.078Z,22.95
2022-10-08T14:14:22.639Z,22.88
2022-10-08T14:18:24.687Z,22.95
2022-10-08T14:22:26.699Z,22.95
2022-10-08T14:26:28.903Z,22.95
2022-10-08T14:30:33.557Z,23.03
2022-10-08T14:34:35.871Z,23.05
2022-10-08T14:38:37.887Z,23.03
2022-10-08T14:42:39.864Z,23.00
2022-10-08T14:46:41.878Z,22.91
2022-10-08T14:50:43.857Z,22.91
2022-10-08T14:54:45.944Z,22.92
2022-10-08T14:58:47.974Z,22.80
2022-10-08T15:02:50.003Z,22.79
2022-10-08T15:06:52.312Z,22.71
2022-10-08T15:10:54.379Z,22.68
2022-10-08T15:14:56.519Z,22.71
2022-10-08T15:18:58.820Z,22.74
2022-10-08T15:23:01.941Z,22.72
2022-10-08T15:27:04.350Z,22.67
2022-10-08T15:31:09.995Z,22.73
2022-10-08T15:35:12.067Z,22.70
2022-10-08T15:39:17.069Z,22.62
2022-10-08T15:43:19.416Z,22.73
2022-10-08T15:47:21.475Z,22.88
2022-10-08T15:51:24.459Z,23.11
2022-10-08T15:55:26.510Z,23.48
2022-10-08T15:59:28.572Z,23.59
2022-10-08T16:03:38.074Z,23.80
2022-10-08T16:07:40.226Z,23.90
2022-10-08T16:11:42.597Z,23.96
2022-10-08T16:15:44.547Z,23.58
2022-10-08T16:19:46.590Z,23.25
2022-10-08T16:23:48.936Z,22.76
2022-10-08T16:27:51.071Z,22.31
2022-10-08T16:31:53.287Z,21.84
2022-10-08T16:35:56.038Z,21.39
2022-10-08T16:40:03.839Z,20.98
2022-10-08T16:44:13.244Z,20.44
2022-10-08T16:48:15.692Z,20.00
2022-10-08T16:52:17.714Z,19.56
2022-10-08T16:56:21.511Z,19.13
2022-10-08T17:00:23.573Z,18.77
2022-10-08T17:04:27.988Z,18.48
2022-10-08T17:08:30.194Z,18.18
2022-10-08T17:12:32.636Z,18.27
2022-10-08T17:16:36.128Z,18.12
2022-10-08T17:20:38.268Z,17.91
2022-10-08T17:24:42.401Z,17.81
2022-10-08T17:28:45.747Z,17.74
2022-10-08T17:32:48.288Z,17.53
2022-10-08T17:36:50.495Z,17.48
2022-10-08T17:40:52.430Z,17.29
2022-10-08T17:44:54.463Z,17.12
2022-10-08T17:48:56.891Z,17.00
2022-10-08T17:52:58.895Z,16.93
2022-10-08T17:57:00.868Z,16.87
2022-10-08T18:01:14.571Z,16.72
2022-10-08T18:05:16.704Z,16.41
2022-10-08T18:09:20.586Z,16.22
2022-10-08T18:13:22.620Z,15.79
2022-10-08T18:17:25.358Z,15.74
2022-10-08T18:21:27.876Z,15.74
2022-10-08T18:25:30.120Z,15.64
2022-10-08T18:29:32.166Z,15.60
2022-10-08T18:33:36.231Z,15.66
2022-10-08T18:37:38.283Z,15.67
2022-10-08T18:41:45.757Z,15.67
2022-10-08T18:45:47.855Z,15.53
2022-10-08T18:49:50.001Z,15.33
2022-10-08T18:53:53.610Z,15.30
2022-10-08T18:57:55.575Z,15.21
2022-10-08T19:01:59.431Z,15.05
2022-10-08T19:06:01.647Z,14.88
2022-10-08T19:10:04.313Z,14.59
2022-10-08T19:14:08.424Z,14.42
2022-10-08T19:18:10.760Z,14.12
2022-10-08T19:22:13.057Z,14.13
2022-10-08T19:26:15.231Z,13.87
2022-10-08T19:30:20.277Z,13.79
2022-10-08T19:34:27.654Z,13.56
2022-10-08T19:38:30.514Z,13.37
2022-10-08T19:42:32.555Z,13.40
2022-10-08T19:46:34.950Z,13.29
2022-10-08T19:50:37.127Z,13.20
2022-10-08T19:54:39.076Z,13.12
2022-10-08T19:58:47.645Z,13.25
2022-10-08T20:02:51.396Z,13.30
2022-10-08T20:06:54.360Z,13.45
2022-10-08T20:10:59.310Z,13.50
2022-10-08T20:15:01.308Z,13.57
2022-10-08T20:19:06.771Z,13.48
2022-10-08T20:23:09.613Z,13.46
2022-10-08T20:27:11.739Z,13.51
2022-10-08T20:31:24.014Z,13.45
2022-10-08T20:35:26.365Z,13.27
2022-10-08T20:39:28.731Z,13.08
2022-10-08T20:43:33.590Z,13.09
2022-10-08T20:47:35.601Z,13.17
2022-10-08T20:51:40.038Z,13.13
2022-10-08T20:55:41.943Z,13.22
2022-10-08T20:59:44.045Z,12.74
2022-10-08T21:03:47.449Z,12.69
2022-10-08T21:07:49.374Z,12.66
2022-10-08T21:11:53.659Z,12.75
2022-10-08T21:16:03.719Z,12.90
2022-10-08T21:20:06.616Z,12.94
2022-10-08T21:24:09.436Z,12.96
2022-10-08T21:28:11.563Z,12.99
2022-10-08T21:32:13.673Z,12.84
2022-10-08T21:36:19.033Z,12.66
2022-10-08T21:40:21.046Z,12.72
2022-10-08T21:44:23.297Z,12.63
2022-10-08T21:48:26.380Z,12.68
2022-10-08T21:52:28.337Z,12.77
2022-10-08T21:56:32.934Z,12.75
2022-10-08T22:00:35.058Z,12.71
2022-10-08T22:04:37.211Z,12.64
2022-10-08T22:08:39.192Z,12.60
2022-10-08T22:12:41.171Z,12.61
2022-10-08T22:16:43.538Z,12.55
2022-10-08T22:20:46.044Z,12.54
2022-10-08T22:24:48.375Z,12.48
2022-10-08T22:28:50.986Z,12.52
2022-10-08T22:32:53.167Z,12.50
2022-10-08T22:36:55.080Z,12.41
2022-10-08T22:41:02.071Z,12.41
2022-10-08T22:45:04.268Z,12.35
2022-10-08T22:49:09.138Z,12.21
2022-10-08T22:53:11.457Z,12.28
2022-10-08T22:57:13.551Z,12.19
2022-10-08T23:01:18.586Z,12.14
2022-10-08T23:05:21.004Z,12.05
2022-10-08T23:09:22.937Z,11.90
2022-10-08T23:13:25.469Z,12.03
2022-10-08T23:17:27.493Z,12.12
2022-10-08T23:21:30.023Z,12.13
2022-10-08T23:25:32.174Z,12.14
2022-10-08T23:29:34.116Z,11.95
2022-10-08T23:33:38.301Z,11.78
2022-10-08T23:37:40.263Z,11.75
2022-10-08T23:41:42.388Z,11.66
2022-10-08T23:45:44.487Z,11.63
2022-10-08T23:49:46.516Z,11.79
2022-10-08T23:53:48.943Z,11.89
2022-10-08T23:57:50.872Z,11.87
